Time;durP1;ratioP1;P1;durP2;ratioP2;P2;SDS_P1;SDS_P2;PMS_P1;PMS_P2;Temp;Humidity;BMP_temperature;BMP_pressure;BME280_temperature;BME280_humidity;BME280_pressure;Samples;Min_cycle;Max_cycle;Signal;HPM_P1;HPM_P2
2023/04/02 00:00:17;;;;;;;3.63;2.60;;;5.70;99.90;;;;;;4928161;29;20216;-69
2023/04/02 00:02:55;;;;;;;3.13;2.93;;;5.70;99.90;;;;;;4923609;29;20231;-70
2023/04/02 00:05:50;;;;;;;3.17;2.90;;;5.70;99.90;;;;;;4928144;29;20232;-70
2023/04/02 00:08:29;;;;;;;3.77;2.93;;;5.70;99.90;;;;;;4927472;29;20264;-69
2023/04/02 00:10:59;;;;;;;3.60;2.97;;;5.60;99.90;;;;;;4927571;29;20204;-69
2023/04/02 00:13:35;;;;;;;3.53;3.23;;;5.60;99.90;;;;;;4927514;29;20655;-68
2023/04/02 00:16:04;;;;;;;4.87;2.90;;;5.60;99.90;;;;;;4916094;29;20240;-68
2023/04/02 00:18:32;;;;;;;3.23;2.93;;;5.60;99.90;;;;;;4927726;29;20271;-68
2023/04/02 00:21:08;;;;;;;3.20;2.87;;;5.60;99.90;;;;;;4929998;29;20216;-68
2023/04/02 00:23:36;;;;;;;4.13;2.70;;;5.60;99.90;;;;;;4931292;29;20232;-68
2023/04/02 00:26:06;;;;;;;2.60;2.40;;;5.60;99.90;;;;;;4930995;29;20404;-70
2023/04/02 00:28:33;;;;;;;3.10;2.60;;;5.60;99.90;;;;;;4931437;29;20740;-70
2023/04/02 00:31:00;;;;;;;3.20;2.50;;;5.70;99.90;;;;;;4930724;29;20291;-70
2023/04/02 00:33:31;;;;;;;2.50;2.30;;;5.60;99.90;;;;;;4931031;29;20897;-70
2023/04/02 00:35:58;;;;;;;3.13;2.50;;;5.60;99.90;;;;;;4931217;29;20287;-70
2023/04/02 00:38:27;;;;;;;2.77;2.43;;;5.40;99.90;;;;;;4931324;29;20586;-70
2023/04/02 00:40:57;;;;;;;2.50;2.30;;;5.40;99.90;;;;;;4931304;29;20235;-70
2023/04/02 00:43:27;;;;;;;3.30;2.70;;;5.40;99.90;;;;;;4930639;29;20358;-70
2023/04/02 00:45:56;;;;;;;3.53;2.07;;;5.40;99.90;;;;;;4930857;29;20200;-70
2023/04/02 00:48:39;;;;;;;2.90;2.30;;;5.50;99.90;;;;;;4930792;29;20217;-70
2023/04/02 00:51:14;;;;;;;2.67;2.17;;;5.50;99.90;;;;;;4930509;29;20717;-70
2023/04/02 00:53:44;;;;;;;3.53;2.10;;;5.40;99.90;;;;;;4930787;29;20235;-70
2023/04/02 00:56:17;;;;;;;2.90;2.00;;;5.40;99.90;;;;;;4930407;29;20985;-70
2023/04/02 00:58:52;;;;;;;2.90;2.33;;;5.40;99.90;;;;;;4919084;29;20295;-71
2023/04/02 01:01:24;;;;;;;2.63;2.30;;;5.40;99.90;;;;;;4930781;29;20903;-71
2023/04/02 01:03:57;;;;;;;2.57;2.30;;;5.50;99.90;;;;;;4930459;29;20940;-71
2023/04/02 01:06:28;;;;;;;2.20;2.10;;;5.50;99.90;;;;;;4930785;29;20734;-70
2023/04/02 01:09:14;;;;;;;2.90;2.10;;;5.50;99.90;;;;;;4930389;29;20303;-69
2023/04/02 01:12:07;;;;;;;4.37;2.10;;;5.60;99.90;;;;;;4930347;29;20278;-69
2023/04/02 01:14:45;;;;;;;2.60;1.97;;;5.50;99.90;;;;;;4930382;29;20208;-69
2023/04/02 01:17:27;;;;;;;3.90;2.40;;;5.60;99.90;;;;;;4930063;29;20747;-69
2023/04/02 01:20:32;;;;;;;2.67;1.87;;;5.50;99.90;;;;;;4929619;29;20543;-69
2023/04/02 01:23:07;;;;;;;2.30;2.10;;;5.50;99.90;;;;;;4929971;29;20263;-70
2023/04/02 01:25:42;;;;;;;4.80;1.77;;;5.50;99.90;;;;;;4930487;29;20282;-70
2023/04/02 01:28:18;;;;;;;4.00;2.40;;;5.50;99.90;;;;;;4930025;29;20294;-70
2023/04/02 01:30:51;;;;;;;3.27;2.20;;;5.50;99.90;;;;;;4929903;29;20203;-70
2023/04/02 01:33:18;;;;;;;2.50;2.03;;;5.60;99.90;;;;;;4929887;29;20940;-70
2023/04/02 01:35:49;;;;;;;2.73;2.23;;;5.50;99.90;;;;;;4930027;29;20291;-70
2023/04/02 01:38:21;;;;;;;3.50;2.07;;;5.50;99.90;;;;;;4929688;29;20208;-70
2023/04/02 01:40:59;;;;;;;3.43;2.33;;;5.50;99.90;;;;;;4929950;29;20268;-70
2023/04/02 01:43:31;;;;;;;2.20;2.00;;;5.50;99.90;;;;;;4929841;29;20224;-70
2023/04/02 01:46:04;;;;;;;2.30;2.10;;;5.40;99.90;;;;;;4929677;29;20667;-70
2023/04/02 01:48:31;;;;;;;2.23;1.80;;;5.40;99.90;;;;;;4929338;29;20208;-70
2023/04/02 01:51:04;;;;;;;3.17;2.33;;;5.40;99.90;;;;;;4929616;29;20336;-70
2023/04/02 01:53:32;;;;;;;2.20;1.97;;;5.50;99.90;;;;;;4929299;29;20223;-70
2023/04/02 01:56:00;;;;;;;1.87;1.77;;;5.40;99.90;;;;;;4929442;29;20223;-70
2023/04/02 01:58:30;;;;;;;2.13;2.03;;;5.40;99.90;;;;;;4929742;29;20212;-70
2023/04/02 02:01:02;;;;;;;3.30;1.93;;;5.40;99.90;;;;;;4928954;29;20204;-70
2023/04/02 02:03:30;;;;;;;2.60;2.40;;;5.30;99.90;;;;;;4929340;29;20861;-70
2023/04/02 02:05:57;;;;;;;2.10;1.87;;;5.40;99.90;;;;;;4929437;29;20215;-70
2023/04/02 02:08:34;;;;;;;2.07;1.97;;;5.30;99.90;;;;;;4929584;29;20319;-70
2023/04/02 02:11:02;;;;;;;2.13;2.03;;;5.30;99.90;;;;;;4929566;29;20263;-70
2023/04/02 02:13:31;;;;;;;2.20;2.00;;;5.40;99.90;;;;;;4929358;29;20322;-70
2023/04/02 02:15:59;;;;;;;2.37;2.10;;;5.40;99.90;;;;;;4927370;29;20805;-70
2023/04/02 02:18:28;;;;;;;1.97;1.80;;;5.40;99.90;;;;;;4929447;29;20208;-71
2023/04/02 02:20:59;;;;;;;3.23;2.03;;;5.40;99.90;;;;;;4929679;29;20275;-70
2023/04/02 02:23:29;;;;;;;2.00;1.83;;;5.40;99.90;;;;;;4929403;29;20200;-69
2023/04/02 02:25:56;;;;;;;2.00;1.80;;;5.30;99.90;;;;;;4929209;29;20214;-70
2023/04/02 02:28:27;;;;;;;3.33;2.37;;;5.40;99.90;;;;;;4929227;29;20295;-70
2023/04/02 02:30:58;;;;;;;3.57;1.80;;;5.40;99.90;;;;;;4928735;29;20287;-69
2023/04/02 02:33:28;;;;;;;3.97;2.23;;;5.30;99.90;;;;;;4928920;29;20212;-69
2023/04/02 02:36:00;;;;;;;2.13;1.70;;;5.40;99.90;;;;;;4929277;29;20236;-69
2023/04/02 02:38:48;;;;;;;1.90;1.80;;;5.40;99.90;;;;;;4929104;29;20200;-69
2023/04/02 02:41:21;;;;;;;1.90;1.80;;;5.40;99.90;;;;;;4928968;29;20200;-70
2023/04/02 02:43:57;;;;;;;1.70;1.60;;;5.40;99.90;;;;;;4928086;29;21023;-70
2023/04/02 02:46:27;;;;;;;2.30;1.67;;;5.40;99.90;;;;;;4928577;29;20195;-70
2023/04/02 02:48:57;;;;;;;1.93;1.73;;;5.40;99.90;;;;;;4927974;29;20299;-71
2023/04/02 02:51:28;;;;;;;3.10;1.90;;;5.40;99.90;;;;;;4928765;29;20648;-70
2023/04/02 02:54:02;;;;;;;3.63;1.83;;;5.40;99.90;;;;;;4928953;29;20211;-70
2023/04/02 02:56:31;;;;;;;1.63;1.53;;;5.40;99.90;;;;;;4928359;29;20189;-70
2023/04/02 02:58:59;;;;;;;2.10;1.90;;;5.40;99.90;;;;;;4928439;29;20659;-70
2023/04/02 03:01:29;;;;;;;2.90;2.00;;;5.50;99.90;;;;;;4928991;29;20253;-70
2023/04/02 03:03:57;;;;;;;1.70;1.60;;;5.50;99.90;;;;;;4927595;29;20239;-70
2023/04/02 03:06:24;;;;;;;2.17;1.70;;;5.40;99.90;;;;;;4909626;29;20311;-70
2023/04/02 03:08:59;;;;;;;2.60;1.60;;;5.40;99.90;;;;;;4915627;29;20660;-70
2023/04/02 03:11:34;;;;;;;1.57;1.43;;;5.40;99.90;;;;;;4928844;29;20216;-69
2023/04/02 03:14:08;;;;;;;1.50;1.40;;;5.40;99.90;;;;;;4928553;29;20211;-70
2023/04/02 03:16:39;;;;;;;4.13;1.60;;;5.40;99.90;;;;;;4928331;29;20247;-69
2023/04/02 03:19:15;;;;;;;1.60;1.50;;;5.30;99.90;;;;;;4928093;29;20208;-70
2023/04/02 03:21:48;;;;;;;3.13;1.67;;;5.20;99.90;;;;;;4928217;29;20629;-70
2023/04/02 03:24:19;;;;;;;4.07;1.90;;;5.20;99.90;;;;;;4928326;29;20236;-69
2023/04/02 03:26:52;;;;;;;2.20;1.57;;;5.20;99.90;;;;;;4928566;29;20285;-70
2023/04/02 03:29:23;;;;;;;3.13;1.80;;;5.20;99.90;;;;;;4927665;29;20616;-70
2023/04/02 03:31:56;;;;;;;2.10;2.00;;;5.20;99.90;;;;;;4943269;28;20290;-70
2023/04/02 03:34:29;;;;;;;1.70;1.60;;;5.30;99.90;;;;;;4947357;28;20282;-70
2023/04/02 03:37:01;;;;;;;2.93;1.50;;;5.30;99.90;;;;;;4947581;28;20622;-70
2023/04/02 03:39:33;;;;;;;1.77;1.60;;;5.30;99.90;;;;;;4947289;28;20199;-70
2023/04/02 03:42:06;;;;;;;2.57;1.63;;;5.20;99.90;;;;;;4941001;28;20209;-71
2023/04/02 03:44:39;;;;;;;3.00;1.67;;;5.20;99.90;;;;;;4928436;29;20596;-71
2023/04/02 03:47:12;;;;;;;2.00;1.80;;;5.20;99.90;;;;;;4928059;29;20220;-71
2023/04/02 03:49:46;;;;;;;1.87;1.63;;;5.20;99.90;;;;;;4928154;29;20290;-69
2023/04/02 03:52:20;;;;;;;3.10;2.10;;;5.30;99.90;;;;;;4927186;29;20287;-69
2023/04/02 03:54:47;;;;;;;1.90;1.70;;;5.30;99.90;;;;;;4924725;29;20299;-69
2023/04/02 03:57:22;;;;;;;1.90;1.70;;;5.20;99.90;;;;;;4931008;29;20582;-69
2023/04/02 03:59:57;;;;;;;2.40;2.20;;;5.20;99.90;;;;;;4931570;29;20250;-69
2023/04/02 04:02:35;;;;;;;2.77;2.10;;;5.10;99.90;;;;;;4923620;29;20341;-69
2023/04/02 04:05:05;;;;;;;2.07;1.87;;;5.00;99.90;;;;;;4910951;29;20295;-69
2023/04/02 04:07:36;;;;;;;2.43;2.07;;;5.00;99.90;;;;;;4910959;29;20288;-69
2023/04/02 04:10:06;;;;;;;1.83;1.67;;;5.00;99.90;;;;;;4926273;29;20315;-69
2023/04/02 04:12:36;;;;;;;1.93;1.70;;;5.00;99.90;;;;;;4930294;29;20299;-69
2023/04/02 04:15:09;;;;;;;2.03;1.80;;;5.10;99.90;;;;;;4929624;29;20275;-69
2023/04/02 04:17:50;;;;;;;2.00;1.80;;;5.10;99.90;;;;;;4930078;29;20205;-69
2023/04/02 04:20:22;;;;;;;3.90;1.80;;;5.10;99.90;;;;;;4929938;29;20196;-69
2023/04/02 04:22:54;;;;;;;1.67;1.57;;;5.10;99.90;;;;;;4929365;29;20675;-69
2023/04/02 04:25:28;;;;;;;3.90;1.80;;;5.10;99.90;;;;;;4929350;29;20268;-69
2023/04/02 04:28:06;;;;;;;1.97;1.70;;;5.10;99.90;;;;;;4929314;29;20212;-69
2023/04/02 04:30:44;;;;;;;2.73;1.80;;;5.10;99.90;;;;;;4929696;29;20232;-69
2023/04/02 04:33:21;;;;;;;3.00;1.90;;;5.10;99.90;;;;;;4930093;29;20192;-69
2023/04/02 04:35:54;;;;;;;2.90;1.67;;;5.10;99.90;;;;;;4929678;29;20204;-69
2023/04/02 04:38:31;;;;;;;1.50;1.40;;;5.20;99.90;;;;;;4929336;29;20197;-68
2023/04/02 04:41:03;;;;;;;3.57;1.70;;;5.10;99.90;;;;;;4910333;29;20208;-68
2023/04/02 04:43:37;;;;;;;2.23;1.60;;;5.10;99.90;;;;;;4945309;29;20311;-68
2023/04/02 04:46:09;;;;;;;2.53;1.60;;;5.10;99.90;;;;;;4948227;28;20318;-68
2023/04/02 04:48:39;;;;;;;1.50;1.30;;;5.20;99.90;;;;;;4947763;28;20963;-69
2023/04/02 04:51:15;;;;;;;2.97;1.63;;;5.20;99.90;;;;;;4948105;28;20215;-68
2023/04/02 04:53:47;;;;;;;4.43;1.53;;;5.20;99.90;;;;;;4948664;28;20287;-69
2023/04/02 04:56:18;;;;;;;3.53;1.70;;;5.20;99.90;;;;;;4943699;28;20262;-68
2023/04/02 04:58:51;;;;;;;2.60;1.63;;;5.30;99.90;;;;;;4912599;29;20217;-68
2023/04/02 05:01:22;;;;;;;2.80;1.70;;;5.10;99.90;;;;;;4929167;29;21012;-68
2023/04/02 05:03:54;;;;;;;2.53;1.80;;;5.10;99.90;;;;;;4928603;29;20238;-68
2023/04/02 05:06:33;;;;;;;4.30;1.93;;;5.20;99.90;;;;;;4927819;29;20252;-68
2023/04/02 05:09:07;;;;;;;2.67;1.60;;;5.20;99.90;;;;;;4928054;29;20279;-68
2023/04/02 05:11:40;;;;;;;2.37;1.50;;;5.30;99.90;;;;;;4929023;29;20271;-68
2023/04/02 05:14:12;;;;;;;1.87;1.50;;;5.30;99.90;;;;;;4929105;29;20686;-68
2023/04/02 05:16:45;;;;;;;2.73;1.63;;;5.40;99.90;;;;;;4929025;29;20331;-68
2023/04/02 05:19:16;;;;;;;2.80;1.60;;;5.40;99.90;;;;;;4928364;29;20207;-68
2023/04/02 05:21:53;;;;;;;2.73;1.50;;;5.40;99.90;;;;;;4928365;29;20211;-68
2023/04/02 05:24:37;;;;;;;2.90;1.90;;;5.40;99.90;;;;;;4928674;29;20212;-68
2023/04/02 05:27:16;;;;;;;2.03;1.50;;;5.40;99.90;;;;;;4928558;29;20200;-68
2023/04/02 05:29:47;;;;;;;4.20;1.47;;;5.40;99.90;;;;;;4928602;29;20220;-68
2023/04/02 05:32:17;;;;;;;1.60;1.30;;;5.40;99.90;;;;;;4928302;29;20219;-68
2023/04/02 05:34:53;;;;;;;2.27;1.43;;;5.30;99.90;;;;;;4928605;29;20224;-68
2023/04/02 05:37:24;;;;;;;1.47;1.37;;;5.30;99.90;;;;;;4928586;29;20715;-69
2023/04/02 05:39:55;;;;;;;2.83;1.37;;;5.30;99.90;;;;;;4927801;29;20307;-69
2023/04/02 05:42:35;;;;;;;2.40;1.43;;;5.30;99.90;;;;;;4928334;29;20680;-69
2023/04/02 05:45:13;;;;;;;2.43;1.40;;;5.30;99.90;;;;;;4928050;29;20224;-69
2023/04/02 05:47:42;;;;;;;2.07;1.20;;;5.30;99.90;;;;;;4927958;29;20200;-69
2023/04/02 05:50:30;;;;;;;2.57;1.53;;;5.30;99.90;;;;;;4927701;29;20211;-69
2023/04/02 05:53:04;;;;;;;1.70;1.20;;;5.30;99.90;;;;;;4928385;29;20231;-69
2023/04/02 05:55:57;;;;;;;2.67;1.63;;;5.30;99.90;;;;;;4928580;29;20228;-69
2023/04/02 05:58:30;;;;;;;0.93;0.93;;;5.30;99.90;;;;;;4913351;29;20303;-68
2023/04/02 06:01:03;;;;;;;1.63;1.43;;;5.30;99.90;;;;;;4927708;29;20287;-69
2023/04/02 06:03:39;;;;;;;2.40;1.40;;;5.30;99.90;;;;;;4927553;29;20315;-69
2023/04/02 06:06:13;;;;;;;1.73;1.30;;;5.30;99.90;;;;;;4927882;29;20329;-69
2023/04/02 06:08:48;;;;;;;2.27;1.50;;;5.40;99.90;;;;;;4927672;29;20348;-69
2023/04/02 06:11:24;;;;;;;1.90;1.27;;;5.40;99.90;;;;;;4927700;29;20200;-69
2023/04/02 06:13:51;;;;;;;2.00;1.30;;;5.40;99.90;;;;;;4927593;29;20200;-69
2023/04/02 06:16:20;;;;;;;1.63;1.00;;;5.40;99.90;;;;;;4927669;29;21130;-69
2023/04/02 06:18:47;;;;;;;2.97;1.10;;;5.40;99.90;;;;;;4926714;29;20209;-69
2023/04/02 06:21:17;;;;;;;1.10;1.00;;;5.40;99.90;;;;;;4927487;29;21055;-68
2023/04/02 06:23:51;;;;;;;1.53;1.30;;;5.40;99.90;;;;;;4927687;29;20295;-69
2023/04/02 06:26:23;;;;;;;1.47;1.20;;;5.40;99.90;;;;;;4927701;29;20343;-69
2023/04/02 06:29:00;;;;;;;1.27;1.00;;;5.40;99.90;;;;;;4926951;29;20786;-69
2023/04/02 06:31:34;;;;;;;1.27;1.03;;;5.50;99.90;;;;;;4927455;29;20298;-69
2023/04/02 06:34:02;;;;;;;1.13;1.03;;;5.50;99.90;;;;;;4926435;29;20287;-69
2023/04/02 06:36:30;;;;;;;1.33;1.00;;;5.40;99.90;;;;;;4926467;29;20312;-68
2023/04/02 06:39:05;;;;;;;1.10;0.87;;;5.50;99.90;;;;;;4927435;29;20215;-69
2023/04/02 06:41:32;;;;;;;1.30;1.07;;;5.50;99.90;;;;;;4927357;29;20986;-68
2023/04/02 06:44:04;;;;;;;1.40;1.20;;;5.50;99.90;;;;;;4926931;29;20299;-69
2023/04/02 06:46:35;;;;;;;1.33;0.80;;;5.50;99.90;;;;;;4926979;29;20719;-68
2023/04/02 06:49:15;;;;;;;0.80;0.80;;;5.60;99.90;;;;;;4927309;29;20227;-69
2023/04/02 06:51:44;;;;;;;1.17;1.07;;;5.60;99.90;;;;;;4926700;29;20206;-69
2023/04/02 06:54:16;;;;;;;1.53;1.20;;;5.60;99.90;;;;;;4926506;29;20872;-68
2023/04/02 06:56:46;;;;;;;4.90;1.13;;;5.70;99.90;;;;;;4927371;29;20332;-68
2023/04/02 06:59:19;;;;;;;1.10;1.00;;;5.70;99.90;;;;;;4927522;29;20216;-68
2023/04/02 07:01:50;;;;;;;1.10;1.10;;;5.80;99.90;;;;;;4929763;29;21062;-68
2023/04/02 07:04:19;;;;;;;1.03;0.73;;;5.90;99.90;;;;;;4946221;28;20318;-68
2023/04/02 07:06:46;;;;;;;2.23;0.80;;;5.90;99.90;;;;;;4928387;28;21018;-69
2023/04/02 07:09:14;;;;;;;1.97;1.00;;;5.90;99.90;;;;;;4927207;29;20212;-68
2023/04/02 07:11:43;;;;;;;1.60;1.00;;;5.90;99.90;;;;;;4925729;29;20687;-68
2023/04/02 07:14:12;;;;;;;1.07;1.07;;;5.90;99.90;;;;;;4925639;29;20255;-69
2023/04/02 07:16:41;;;;;;;1.30;0.90;;;5.90;99.90;;;;;;4926237;29;20240;-69
2023/04/02 07:19:13;;;;;;;2.77;1.20;;;5.90;99.90;;;;;;4925957;29;20738;-68
2023/04/02 07:21:42;;;;;;;1.27;0.83;;;5.90;99.90;;;;;;4926889;29;20204;-69
2023/04/02 07:24:09;;;;;;;3.30;1.40;;;5.90;99.90;;;;;;4926247;29;20299;-69
2023/04/02 07:26:38;;;;;;;1.77;1.20;;;5.90;99.90;;;;;;4926334;29;21076;-68
2023/04/02 07:29:06;;;;;;;1.80;1.10;;;5.90;99.90;;;;;;4926450;29;20303;-68
2023/04/02 07:31:33;;;;;;;1.33;1.10;;;6.00;99.90;;;;;;4926266;29;20842;-68
2023/04/02 07:34:00;;;;;;;4.13;0.97;;;6.00;99.90;;;;;;4926212;29;20216;-69
2023/04/02 07:36:32;;;;;;;2.57;1.37;;;6.00;99.90;;;;;;4926294;29;20212;-68
2023/04/02 07:38:59;;;;;;;1.30;1.20;;;6.00;99.90;;;;;;4925587;29;20683;-68
2023/04/02 07:41:27;;;;;;;1.40;1.20;;;6.00;99.90;;;;;;4926422;29;20599;-69
2023/04/02 07:43:55;;;;;;;1.03;0.90;;;6.10;99.90;;;;;;4926147;29;20560;-68
2023/04/02 07:46:23;;;;;;;1.07;0.83;;;6.10;99.90;;;;;;4926291;29;20673;-69
2023/04/02 07:48:50;;;;;;;1.63;0.90;;;6.20;99.90;;;;;;4926100;29;20204;-69
2023/04/02 07:51:21;;;;;;;1.73;1.10;;;6.10;99.90;;;;;;4926232;29;20308;-69
2023/04/02 07:53:50;;;;;;;1.60;1.20;;;6.10;99.90;;;;;;4926139;29;20714;-69
2023/04/02 07:56:18;;;;;;;1.77;1.20;;;6.00;99.90;;;;;;4926020;29;20200;-69
2023/04/02 07:58:46;;;;;;;1.87;1.10;;;6.10;99.90;;;;;;4926556;29;20235;-69
2023/04/02 08:01:24;;;;;;;2.90;1.13;;;6.10;99.90;;;;;;4926148;29;20311;-69
2023/04/02 08:03:52;;;;;;;1.40;1.23;;;6.20;99.90;;;;;;4925686;29;20224;-69
2023/04/02 08:06:19;;;;;;;2.10;0.90;;;6.20;99.90;;;;;;4926374;29;20237;-69
2023/04/02 08:08:46;;;;;;;1.40;1.13;;;6.20;99.90;;;;;;4925655;29;20212;-69
2023/04/02 08:11:13;;;;;;;1.43;0.93;;;6.30;99.90;;;;;;4925912;29;20523;-69
2023/04/02 08:13:40;;;;;;;1.10;0.90;;;6.30;99.90;;;;;;4906734;29;20276;-69
2023/04/02 08:16:08;;;;;;;1.60;1.23;;;6.40;99.90;;;;;;4910274;29;20236;-68
2023/04/02 08:18:36;;;;;;;1.17;1.07;;;6.30;99.90;;;;;;4925941;29;20208;-68
2023/04/02 08:21:18;;;;;;;1.17;1.07;;;6.30;99.90;;;;;;4926359;29;20231;-68
2023/04/02 08:23:46;;;;;;;4.60;1.33;;;6.40;99.90;;;;;;4926098;29;20588;-69
2023/04/02 08:26:19;;;;;;;2.70;1.23;;;6.40;99.90;;;;;;4925293;29;20243;-69
2023/04/02 08:28:46;;;;;;;1.63;1.20;;;6.40;99.90;;;;;;4925940;29;20212;-69
2023/04/02 08:31:13;;;;;;;1.57;1.20;;;6.40;99.90;;;;;;4925440;29;20231;-69
2023/04/02 08:33:42;;;;;;;2.17;1.20;;;6.40;99.90;;;;;;4925633;29;20216;-69
2023/04/02 08:36:15;;;;;;;1.30;0.90;;;6.50;99.90;;;;;;4925647;29;20702;-70
2023/04/02 08:38:42;;;;;;;2.40;1.10;;;6.40;99.90;;;;;;4925526;29;20202;-69
2023/04/02 08:41:17;;;;;;;1.60;1.37;;;6.40;99.90;;;;;;4926947;29;20833;-70
2023/04/02 08:44:11;;;;;;;3.07;1.30;;;6.40;99.90;;;;;;4910469;29;20268;-68
2023/04/02 08:46:46;;;;;;;0.97;0.90;;;6.50;99.90;;;;;;4928563;29;20328;-69
2023/04/02 08:49:17;;;;;;;1.93;1.40;;;6.50;99.90;;;;;;4928909;29;20930;-69
2023/04/02 08:51:46;;;;;;;1.57;1.20;;;6.50;99.90;;;;;;4928867;29;20216;-69
2023/04/02 08:54:22;;;;;;;1.30;1.10;;;6.50;99.90;;;;;;4924056;29;20211;-69
2023/04/02 08:56:55;;;;;;;2.13;1.30;;;6.60;99.90;;;;;;4923224;29;20260;-69
2023/04/02 08:59:28;;;;;;;3.00;1.13;;;6.60;99.90;;;;;;4924361;29;20232;-69
2023/04/02 09:02:02;;;;;;;0.93;0.83;;;6.60;99.90;;;;;;4927941;29;20707;-69
2023/04/02 09:04:33;;;;;;;1.27;0.80;;;6.50;99.90;;;;;;4929186;29;20279;-69
2023/04/02 09:07:00;;;;;;;0.73;0.70;;;6.60;99.90;;;;;;4929671;29;20220;-69
2023/04/02 09:09:27;;;;;;;1.27;1.00;;;6.60;99.90;;;;;;4929518;29;20295;-69
2023/04/02 09:11:59;;;;;;;1.40;1.00;;;6.70;99.90;;;;;;4928962;29;20619;-69
2023/04/02 09:14:33;;;;;;;2.00;1.47;;;6.80;99.90;;;;;;4930144;29;20204;-69
2023/04/02 09:17:03;;;;;;;2.07;1.10;;;6.90;99.90;;;;;;4930016;29;20235;-69
2023/04/02 09:19:37;;;;;;;2.23;1.30;;;7.00;99.90;;;;;;4930708;29;20228;-69
2023/04/02 09:22:13;;;;;;;1.20;1.00;;;7.20;99.90;;;;;;4930194;29;20295;-69
2023/04/02 09:24:40;;;;;;;1.93;1.23;;;7.40;99.90;;;;;;4930399;29;20308;-69
2023/04/02 09:27:17;;;;;;;3.27;1.50;;;7.60;99.90;;;;;;4930146;29;20355;-69
2023/04/02 09:29:46;;;;;;;2.43;1.17;;;7.70;99.90;;;;;;4925554;29;20299;-69
2023/04/02 09:32:34;;;;;;;1.93;1.20;;;7.70;99.90;;;;;;4929950;29;20287;-69
2023/04/02 09:35:15;;;;;;;1.40;0.90;;;7.70;99.90;;;;;;4924943;28;20303;-69
2023/04/02 09:37:43;;;;;;;1.67;1.33;;;7.80;99.90;;;;;;4930069;29;20231;-69
2023/04/02 09:40:25;;;;;;;2.73;1.40;;;7.90;99.90;;;;;;4930256;29;20219;-69
2023/04/02 09:43:03;;;;;;;3.20;1.13;;;7.90;99.90;;;;;;4929819;29;20714;-69
2023/04/02 09:45:30;;;;;;;2.10;1.10;;;7.90;99.90;;;;;;4930154;29;20272;-69
2023/04/02 09:47:58;;;;;;;2.07;1.20;;;7.90;99.90;;;;;;4929670;29;20608;-69
2023/04/02 09:50:31;;;;;;;1.93;1.07;;;7.90;99.90;;;;;;4929578;29;20224;-69
2023/04/02 09:52:59;;;;;;;2.53;1.20;;;7.80;99.90;;;;;;4929324;29;20663;-69
2023/04/02 09:55:29;;;;;;;1.10;1.00;;;7.70;99.90;;;;;;4927278;29;20208;-69
2023/04/02 09:58:11;;;;;;;1.07;0.87;;;7.70;99.90;;;;;;4926753;29;20200;-69
2023/04/02 10:00:39;;;;;;;1.03;0.93;;;7.70;99.90;;;;;;4922434;29;20204;-69
2023/04/02 10:03:19;;;;;;;1.07;1.00;;;7.70;99.90;;;;;;4928825;29;20228;-69
2023/04/02 10:05:48;;;;;;;2.13;1.10;;;7.60;99.90;;;;;;4944076;29;20200;-68
2023/04/02 10:08:21;;;;;;;1.83;0.60;;;7.50;99.90;;;;;;4928518;29;20395;-68
2023/04/02 10:10:52;;;;;;;1.93;1.03;;;7.70;99.90;;;;;;4920114;29;20295;-69
2023/04/02 10:13:25;;;;;;;4.10;1.23;;;7.90;99.90;;;;;;4928396;29;20204;-69
2023/04/02 10:15:57;;;;;;;3.53;1.27;;;8.10;99.90;;;;;;4929043;29;20268;-70
2023/04/02 10:18:36;;;;;;;0.97;0.93;;;8.30;99.90;;;;;;4929194;29;20193;-69
2023/04/02 10:21:06;;;;;;;3.17;1.00;;;8.50;99.90;;;;;;4926784;29;20287;-69
2023/04/02 10:23:33;;;;;;;3.87;1.03;;;8.70;99.90;;;;;;4928816;29;20212;-69
2023/04/02 10:26:12;;;;;;;4.37;1.30;;;8.90;99.90;;;;;;4928172;29;20667;-69
2023/04/02 10:28:53;;;;;;;2.70;1.00;;;9.00;99.90;;;;;;4928463;29;20271;-69
2023/04/02 10:31:25;;;;;;;1.27;0.97;;;9.00;99.90;;;;;;4927977;29;20200;-69
2023/04/02 10:33:59;;;;;;;2.87;1.30;;;8.90;99.90;;;;;;4928407;29;20208;-69
2023/04/02 10:36:42;;;;;;;2.47;0.97;;;8.80;99.90;;;;;;4929241;29;20301;-69
2023/04/02 10:39:15;;;;;;;1.60;1.00;;;8.90;99.90;;;;;;4929314;29;20708;-69
2023/04/02 10:41:50;;;;;;;1.33;0.83;;;9.00;99.90;;;;;;4929273;29;20201;-69
2023/04/02 10:44:36;;;;;;;1.90;1.10;;;9.10;99.90;;;;;;4929160;29;20545;-69
2023/04/02 10:47:12;;;;;;;1.70;1.27;;;9.20;99.90;;;;;;4929035;29;20228;-69
2023/04/02 10:49:46;;;;;;;1.60;0.77;;;9.40;99.90;;;;;;4928990;29;20283;-69
2023/04/02 10:52:21;;;;;;;1.33;1.00;;;9.40;99.90;;;;;;4928402;29;20236;-69
2023/04/02 10:54:50;;;;;;;1.77;1.00;;;9.60;99.90;;;;;;4927663;29;20211;-69
2023/04/02 10:57:33;;;;;;;1.43;1.13;;;9.70;99.90;;;;;;4927889;29;20208;-69
2023/04/02 11:00:08;;;;;;;1.30;1.20;;;9.90;99.90;;;;;;4928572;29;20308;-69
2023/04/02 11:02:41;;;;;;;3.57;1.20;;;10.10;99.90;;;;;;4928568;29;20774;-69
2023/04/02 11:05:18;;;;;;;3.80;1.40;;;10.20;99.90;;;;;;4928175;29;20283;-69
2023/04/02 11:07:55;;;;;;;1.40;1.30;;;10.30;99.90;;;;;;4925054;29;20223;-69
2023/04/02 11:10:22;;;;;;;1.63;1.10;;;10.50;99.90;;;;;;4928421;29;20195;-69
2023/04/02 11:12:56;;;;;;;1.63;1.30;;;10.50;99.90;;;;;;4927978;29;20212;-70
2023/04/02 11:15:23;;;;;;;4.60;0.90;;;10.30;99.90;;;;;;4931161;29;20331;-69
2023/04/02 11:17:50;;;;;;;1.03;0.77;;;10.20;99.90;;;;;;4948011;28;20279;-69
2023/04/02 11:21:03;;;;;;;1.90;1.20;;;10.20;99.90;;;;;;4947645;28;20216;-69
2023/04/02 11:23:34;;;;;;;2.17;1.33;;;10.20;99.90;;;;;;4947783;28;20294;-69
2023/04/02 11:26:30;;;;;;;3.27;1.10;;;10.10;99.90;;;;;;4947991;28;20191;-70
2023/04/02 11:29:29;;;;;;;4.50;1.30;;;10.00;99.90;;;;;;4935528;28;20280;-69
2023/04/02 11:32:26;;;;;;;3.40;1.20;;;9.80;99.90;;;;;;4928169;29;20216;-69
2023/04/02 11:35:34;;;;;;;1.67;0.90;;;9.80;99.90;;;;;;4928404;29;20211;-69
2023/04/02 11:38:03;;;;;;;1.83;1.20;;;9.90;99.90;;;;;;4928363;29;20279;-69
2023/04/02 11:40:49;;;;;;;1.97;1.20;;;10.10;99.90;;;;;;4928261;29;20303;-69
2023/04/02 11:43:51;;;;;;;1.80;0.80;;;10.20;99.90;;;;;;4928376;29;20287;-69
2023/04/02 11:46:48;;;;;;;1.80;1.00;;;10.40;99.90;;;;;;4928157;29;20204;-69
2023/04/02 11:49:34;;;;;;;3.30;1.40;;;10.60;99.90;;;;;;4928011;29;20229;-69
2023/04/02 11:52:03;;;;;;;2.20;1.50;;;10.80;99.90;;;;;;4928397;29;20204;-69
2023/04/02 11:54:34;;;;;;;2.43;1.40;;;11.00;99.90;;;;;;4928335;29;20326;-69
2023/04/02 11:57:10;;;;;;;2.77;1.20;;;11.20;99.90;;;;;;4928283;29;20214;-69
2023/04/02 11:59:45;;;;;;;1.50;1.20;;;11.40;99.90;;;;;;4928610;29;20218;-69
2023/04/02 12:02:20;;;;;;;3.03;1.47;;;11.40;99.90;;;;;;4928436;29;20594;-69
2023/04/02 12:05:13;;;;;;;1.53;1.10;;;11.30;99.90;;;;;;4928065;29;20295;-69
2023/04/02 12:08:06;;;;;;;1.47;1.17;;;11.30;99.90;;;;;;4928193;29;20220;-69
2023/04/02 12:10:48;;;;;;;1.30;1.20;;;11.30;99.90;;;;;;4928107;29;20196;-69
2023/04/02 12:13:20;;;;;;;2.37;1.27;;;11.20;99.90;;;;;;4927916;29;20746;-70
2023/04/02 12:15:48;;;;;;;1.67;0.87;;;11.00;99.90;;;;;;4929813;29;20248;-69
2023/04/02 12:18:19;;;;;;;2.73;1.13;;;10.80;99.90;;;;;;4931343;29;20244;-70
2023/04/02 12:20:51;;;;;;;2.77;1.53;;;10.70;99.90;;;;;;4931546;29;20308;-69
2023/04/02 12:23:25;;;;;;;1.93;1.27;;;10.60;99.90;;;;;;4931083;29;20201;-69
2023/04/02 12:26:00;;;;;;;1.70;1.10;;;10.50;99.90;;;;;;4912463;29;20618;-69
2023/04/02 12:28:32;;;;;;;1.53;0.90;;;10.30;99.90;;;;;;4928955;29;20313;-69
2023/04/02 12:31:05;;;;;;;2.17;1.03;;;10.50;99.90;;;;;;4931021;29;20207;-70
2023/04/02 12:33:36;;;;;;;1.67;1.23;;;10.90;99.90;;;;;;4931253;29;20670;-69
2023/04/02 12:36:05;;;;;;;1.23;1.10;;;11.10;99.90;;;;;;4931220;29;20200;-69
2023/04/02 12:38:36;;;;;;;2.70;1.13;;;11.20;99.90;;;;;;4931036;29;20295;-69
2023/04/02 12:41:05;;;;;;;1.77;1.50;;;11.20;99.90;;;;;;4931333;29;20203;-69
2023/04/02 12:43:36;;;;;;;2.40;1.30;;;11.40;99.90;;;;;;4930872;29;20251;-69
2023/04/02 12:46:06;;;;;;;3.77;1.37;;;11.40;99.90;;;;;;4931032;29;21068;-69
2023/04/02 12:48:34;;;;;;;1.37;1.13;;;11.60;99.90;;;;;;4930894;29;20232;-69
2023/04/02 12:51:02;;;;;;;2.90;1.10;;;11.60;99.90;;;;;;4930776;29;20224;-68
2023/04/02 12:53:33;;;;;;;2.73;1.30;;;11.80;99.90;;;;;;4930901;29;20311;-69
2023/04/02 12:56:01;;;;;;;1.97;1.00;;;12.10;99.90;;;;;;4930310;28;20287;-69
2023/04/02 12:58:32;;;;;;;1.40;1.20;;;12.10;99.90;;;;;;4925899;29;20679;-69
2023/04/02 13:01:18;;;;;;;3.70;1.50;;;11.90;99.90;;;;;;4911766;29;20204;-69
2023/04/02 13:03:58;;;;;;;3.23;1.20;;;11.70;99.90;;;;;;4911559;29;20208;-69
2023/04/02 13:06:26;;;;;;;2.53;1.30;;;11.50;99.90;;;;;;4930746;29;20287;-69
2023/04/02 13:08:53;;;;;;;2.23;1.17;;;11.30;99.90;;;;;;4919957;29;20248;-69
2023/04/02 13:11:22;;;;;;;2.27;1.20;;;11.20;99.90;;;;;;4911825;29;20517;-69
2023/04/02 13:13:50;;;;;;;1.30;0.90;;;11.10;99.90;;;;;;4917727;29;20212;-69
2023/04/02 13:16:36;;;;;;;2.73;1.03;;;11.40;99.90;;;;;;4930130;29;20231;-70
2023/04/02 13:19:20;;;;;;;1.40;1.03;;;11.70;99.90;;;;;;4930161;29;20207;-69
2023/04/02 13:21:47;;;;;;;2.07;1.00;;;12.10;99.90;;;;;;4930741;29;20287;-69
2023/04/02 13:24:18;;;;;;;2.33;0.67;;;12.30;99.60;;;;;;4930540;29;20678;-69
2023/04/02 13:26:46;;;;;;;1.23;1.03;;;12.20;99.40;;;;;;4929956;29;20239;-70